createdAt,value
2018-03-06T00:00:55.688Z,-1.4
2018-03-06T00:01:55.387Z,-1.52
2018-03-06T00:02:56.518Z,-1.43
2018-03-06T00:03:55.620Z,-1.46
2018-03-06T00:04:55.310Z,-1.43
2018-03-06T00:05:55.295Z,-1.49
2018-03-06T00:06:57.264Z,-1.52
2018-03-06T00:07:55.257Z,-1.43
2018-03-06T00:08:55.529Z,-1.55
2018-03-06T00:09:57.144Z,-1.52
2018-03-06T00:10:55.202Z,-1.48
2018-03-06T00:11:55.464Z,-1.46
2018-03-06T00:12:55.431Z,-1.53
2018-03-06T00:13:55.974Z,-1.43
2018-03-06T00:14:55.135Z,-1.52
2018-03-06T00:15:54.823Z,-1.48
2018-03-06T00:16:55.491Z,-1.5
2018-03-06T00:17:54.795Z,-1.48
2018-03-06T00:18:55.036Z,-1.56
2018-03-06T00:19:55.297Z,-1.45
2018-03-06T00:20:55.290Z,-1.48
2018-03-06T00:21:54.711Z,-1.49
2018-03-06T00:22:55.279Z,-1.38
2018-03-06T00:23:55.253Z,-1.43
2018-03-06T00:24:55.808Z,-1.49
2018-03-06T00:25:54.902Z,-1.58
2018-03-06T00:26:54.897Z,-1.43
2018-03-06T00:27:55.402Z,-1.46
2018-03-06T00:28:55.573Z,-1.45
2018-03-06T00:29:54.829Z,-1.42
2018-03-06T00:30:54.543Z,-1.55
2018-03-06T00:31:55.658Z,-1.46
2018-03-06T00:32:55.085Z,-1.53
2018-03-06T00:33:55.022Z,-1.43
2018-03-06T00:34:55.027Z,-1.49
2018-03-06T00:35:55.483Z,-1.55
2018-03-06T00:36:54.966Z,-1.45
2018-03-06T00:37:54.695Z,-1.52
2018-03-06T00:38:54.923Z,-1.48
2018-03-06T00:39:55.507Z,-1.49
2018-03-06T00:40:54.882Z,-1.52
2018-03-06T00:41:54.330Z,-1.42
2018-03-06T00:42:55.430Z,-1.43
2018-03-06T00:43:54.569Z,-1.5
2018-03-06T00:44:54.817Z,-1.5
2018-03-06T00:45:55.680Z,-1.42
2018-03-06T00:46:54.791Z,-1.58
2018-03-06T00:47:54.768Z,-1.58
2018-03-06T00:48:54.196Z,-1.55
2018-03-06T00:49:56.189Z,-1.58
2018-03-06T00:50:54.703Z,-1.56
2018-03-06T00:51:54.410Z,-1.46
2018-03-06T00:52:56.397Z,-1.58
2018-03-06T00:53:54.374Z,-1.56
2018-03-06T00:54:54.652Z,-1.48
2018-03-06T00:55:54.594Z,-1.49
2018-03-06T00:56:55.269Z,-1.56
2018-03-06T00:57:54.551Z,-1.61
2018-03-06T00:58:54.282Z,-1.52
2018-03-06T00:59:56.236Z,-1.5
2018-03-06T01:00:54.544Z,-1.58
2018-03-06T01:01:54.518Z,-1.55
2018-03-06T01:02:54.445Z,-1.5
2018-03-06T01:03:55.147Z,-1.48
2018-03-06T01:04:54.154Z,-1.6
2018-03-06T01:05:54.132Z,-1.48
2018-03-06T01:06:56.041Z,-1.53
2018-03-06T01:07:54.135Z,-1.45
2018-03-06T01:08:54.073Z,-1.4
2018-03-06T01:09:54.057Z,-1.42
2018-03-06T01:10:55.716Z,-1.38
2018-03-06T01:11:54.024Z,-1.37
2018-03-06T01:12:54.266Z,-1.45
2018-03-06T01:13:55.034Z,-1.34
2018-03-06T01:14:54.241Z,-1.46
2018-03-06T01:15:54.212Z,-1.4
2018-03-06T01:16:53.931Z,-1.42
2018-03-06T01:17:53.635Z,-1.42
2018-03-06T01:18:53.882Z,-1.45
2018-03-06T01:19:54.135Z,-1.46
2018-03-06T01:20:53.840Z,-1.48
2018-03-06T01:21:55.646Z,-1.45
2018-03-06T01:22:54.092Z,-1.45
2018-03-06T01:23:53.785Z,-1.38
2018-03-06T01:24:53.797Z,-1.45
2018-03-06T01:25:54.615Z,-1.4
2018-03-06T01:26:53.733Z,-1.35
2018-03-06T01:27:53.442Z,-1.45
2018-03-06T01:28:54.567Z,-1.45
2018-03-06T01:29:53.404Z,-1.43
2018-03-06T01:30:53.939Z,-1.5
2018-03-06T01:31:55.120Z,-1.46
2018-03-06T01:32:53.617Z,-1.49
2018-03-06T01:33:53.879Z,-1.42
2018-03-06T01:34:55.654Z,-1.46
2018-03-06T01:35:53.833Z,-1.43
2018-03-06T01:36:53.547Z,-1.46
2018-03-06T01:37:54.162Z,-1.48
2018-03-06T01:38:54.153Z,-1.49
2018-03-06T01:39:53.482Z,-1.52
2018-03-06T01:40:53.738Z,-1.48
2018-03-06T01:41:55.353Z,-1.43
2018-03-06T01:42:53.706Z,-1.5
2018-03-06T01:43:53.681Z,-1.43
2018-03-06T01:44:54.270Z,-1.43
2018-03-06T01:45:53.382Z,-1.45
2018-03-06T01:46:53.346Z,-1.43
2018-03-06T01:47:54.928Z,-1.48
2018-03-06T01:48:53.589Z,-1.53
2018-03-06T01:49:53.290Z,-1.49
2018-03-06T01:50:53.276Z,-1.46
2018-03-06T01:51:53.740Z,-1.5
2018-03-06T01:52:53.519Z,-1.53
2018-03-06T01:53:53.234Z,-1.56
2018-03-06T01:54:54.984Z,-1.61
2018-03-06T01:55:52.906Z,-1.52
2018-03-06T01:56:53.435Z,-1.6
2018-03-06T01:57:54.244Z,-1.61
2018-03-06T01:58:53.434Z,-1.67
2018-03-06T01:59:53.389Z,-1.63
2018-03-06T02:00:52.810Z,-1.6
2018-03-06T02:01:54.690Z,-1.55
2018-03-06T02:02:52.774Z,-1.63
2018-03-06T02:03:53.310Z,-1.64
2018-03-06T02:04:54.216Z,-1.6
2018-03-06T02:05:53.288Z,-1.61
2018-03-06T02:06:52.973Z,-1.67
2018-03-06T02:07:53.220Z,-1.64
2018-03-06T02:08:54.744Z,-1.61
2018-03-06T02:09:53.203Z,-1.6
2018-03-06T02:10:52.908Z,-1.6
2018-03-06T02:11:53.491Z,-1.64
2018-03-06T02:12:52.867Z,-1.66
2018-03-06T02:13:53.095Z,-1.64
2018-03-06T02:14:52.824Z,-1.7
2018-03-06T02:15:54.519Z,-1.66
2018-03-06T02:16:52.776Z,-1.64
2018-03-06T02:17:53.030Z,-1.68
2018-03-06T02:18:53.009Z,-1.67
2018-03-06T02:19:54.742Z,-1.76
2018-03-06T02:20:52.973Z,-1.76
2018-03-06T02:21:52.957Z,-1.85
2018-03-06T02:22:52.937Z,-1.78
2018-03-06T02:23:54.060Z,-1.88
2018-03-06T02:24:52.628Z,-1.71
2018-03-06T02:25:52.600Z,-1.79
2018-03-06T02:26:53.752Z,-1.85
2018-03-06T02:27:52.896Z,-1.84
2018-03-06T02:28:52.841Z,-1.74
2018-03-06T02:29:52.522Z,-1.79
2018-03-06T02:30:54.488Z,-1.79
2018-03-06T02:31:52.490Z,-1.81
2018-03-06T02:32:52.195Z,-1.79
2018-03-06T02:33:52.711Z,-1.89
2018-03-06T02:34:54.259Z,-1.97
2018-03-06T02:35:52.712Z,-1.85
2018-03-06T02:36:52.386Z,-2
2018-03-06T02:37:52.384Z,-1.96
2018-03-06T02:38:53.353Z,-2.05
2018-03-06T02:39:52.063Z,-2
2018-03-06T02:40:52.310Z,-2
2018-03-06T02:41:52.780Z,-1.96
2018-03-06T02:42:52.563Z,-2.07
2018-03-06T02:43:52.251Z,-2.09
2018-03-06T02:44:52.967Z,-1.99
2018-03-06T02:45:52.497Z,-2
2018-03-06T02:46:52.460Z,-2.05
2018-03-06T02:47:52.201Z,-2.02
2018-03-06T02:48:54.074Z,-2.1
2018-03-06T02:49:52.411Z,-2.09
2018-03-06T02:50:52.117Z,-2.2
2018-03-06T02:51:52.125Z,-2.14
2018-03-06T02:52:52.494Z,-2.2
2018-03-06T02:53:52.337Z,-2.15
2018-03-06T02:54:52.314Z,-2.2
2018-03-06T02:55:53.654Z,-2.18
2018-03-06T02:56:52.000Z,-2.14
2018-03-06T02:57:52.260Z,-2.28
2018-03-06T02:58:52.247Z,-2.25
2018-03-06T02:59:53.960Z,-2.18
2018-03-06T03:00:52.199Z,-2.21
2018-03-06T03:01:52.390Z,-2.15
2018-03-06T03:02:53.075Z,-2.15
2018-03-06T03:03:51.875Z,-2.17
2018-03-06T03:04:51.866Z,-2.21
2018-03-06T03:05:51.564Z,-2.21
2018-03-06T03:06:53.784Z,-2.2
2018-03-06T03:07:51.790Z,-2.21
2018-03-06T03:08:52.035Z,-2.18
2018-03-06T03:09:51.749Z,-2.17
2018-03-06T03:10:52.581Z,-2.15
2018-03-06T03:11:51.992Z,-2.24
2018-03-06T03:12:51.422Z,-2.24
2018-03-06T03:13:51.404Z,-2.21
2018-03-06T03:14:51.668Z,-2.24
2018-03-06T03:15:51.949Z,-2.18
2018-03-06T03:16:51.613Z,-2.21
2018-03-06T03:17:52.283Z,-2.2
2018-03-06T03:18:51.581Z,-2.28
2018-03-06T03:19:51.821Z,-2.21
2018-03-06T03:20:51.813Z,-2.23
2018-03-06T03:21:53.310Z,-2.27
2018-03-06T03:22:51.776Z,-2.24
2018-03-06T03:23:51.475Z,-2.27
2018-03-06T03:24:52.360Z,-2.18
2018-03-06T03:25:51.728Z,-2.27
2018-03-06T03:26:51.686Z,-2.23
2018-03-06T03:27:52.537Z,-2.24
2018-03-06T03:28:51.379Z,-2.24
2018-03-06T03:29:51.632Z,-2.25
2018-03-06T03:30:51.624Z,-2.24
2018-03-06T03:31:52.362Z,-2.24
2018-03-06T03:32:51.328Z,-2.24
2018-03-06T03:33:51.281Z,-2.25
2018-03-06T03:34:50.994Z,-2.23
2018-03-06T03:35:51.536Z,-2.34
2018-03-06T03:36:51.505Z,-2.24
2018-03-06T03:37:50.933Z,-2.34
2018-03-06T03:38:51.186Z,-2.36
2018-03-06T03:39:51.172Z,-2.32
2018-03-06T03:40:51.959Z,-2.27
2018-03-06T03:41:51.124Z,-2.32
2018-03-06T03:42:51.411Z,-2.28
2018-03-06T03:43:51.934Z,-2.27
2018-03-06T03:44:51.390Z,-2.27
2018-03-06T03:45:51.330Z,-2.34
2018-03-06T03:46:53.017Z,-2.27
2018-03-06T03:47:51.290Z,-2.34
2018-03-06T03:48:51.270Z,-2.24
2018-03-06T03:49:51.942Z,-2.25
2018-03-06T03:50:50.971Z,-2.2
2018-03-06T03:51:51.222Z,-2.2
2018-03-06T03:52:50.916Z,-2.18
2018-03-06T03:53:52.794Z,-2.24
2018-03-06T03:54:50.871Z,-2.23
2018-03-06T03:55:51.115Z,-2.21
2018-03-06T03:56:51.732Z,-2.25
2018-03-06T03:57:51.102Z,-2.21
2018-03-06T03:58:50.793Z,-2.21
2018-03-06T03:59:51.049Z,-2.1
2018-03-06T04:00:52.174Z,-2.23
2018-03-06T04:01:50.752Z,-2.28
2018-03-06T04:02:50.984Z,-2.17
2018-03-06T04:03:52.707Z,-2.18
2018-03-06T04:04:50.687Z,-2.14
2018-03-06T04:05:50.386Z,-2.17
2018-03-06T04:06:50.644Z,-2.15
2018-03-06T04:07:50.884Z,-2.23
2018-03-06T04:08:51.401Z,-2.15
2018-03-06T04:09:50.582Z,-2.21
2018-03-06T04:10:50.848Z,-2.15
2018-03-06T04:11:50.538Z,-2.12
2018-03-06T04:12:50.248Z,-2.18
2018-03-06T04:13:50.842Z,-2.18
2018-03-06T04:14:50.764Z,-2.12
2018-03-06T04:15:52.494Z,-2.1
2018-03-06T04:16:50.714Z,-2.06
2018-03-06T04:17:50.687Z,-2.14
2018-03-06T04:18:51.271Z,-2.09
2018-03-06T04:19:50.648Z,-2.06
2018-03-06T04:20:50.380Z,-2.1
2018-03-06T04:21:50.623Z,-2.09
2018-03-06T04:22:52.385Z,-2.1
2018-03-06T04:23:50.586Z,-2.07
2018-03-06T04:24:50.566Z,-2.07
2018-03-06T04:25:52.038Z,-2.07
2018-03-06T04:26:50.522Z,-2.14
2018-03-06T04:27:50.508Z,-2.09
2018-03-06T04:28:50.497Z,-2.14
2018-03-06T04:29:50.844Z,-2.07
2018-03-06T04:30:50.172Z,-2.06
2018-03-06T04:31:50.167Z,-2.07
2018-03-06T04:32:49.859Z,-2.07
2018-03-06T04:33:50.399Z,-2.14
2018-03-06T04:34:49.820Z,-2.12
2018-03-06T04:35:50.961Z,-2.12
2018-03-06T04:36:50.066Z,-2.1
2018-03-06T04:37:49.760Z,-2.09
2018-03-06T04:38:50.278Z,-2.12
2018-03-06T04:39:49.722Z,-2.09
2018-03-06T04:40:49.704Z,-2.12
2018-03-06T04:41:49.955Z,-2.12
2018-03-06T04:42:49.667Z,-2.07
2018-03-06T04:43:49.912Z,-2.1
2018-03-06T04:44:49.902Z,-2.12
2018-03-06T04:45:49.872Z,-2.1
2018-03-06T04:46:52.014Z,-2.12
2018-03-06T04:47:49.854Z,-2.12
2018-03-06T04:48:49.835Z,-2.1
2018-03-06T04:49:49.528Z,-2.07
2018-03-06T04:50:49.508Z,-2.07
2018-03-06T04:51:50.025Z,-2.15
2018-03-06T04:52:50.018Z,-2.09
2018-03-06T04:53:50.537Z,-2.12
2018-03-06T04:54:50.040Z,-2.15
2018-03-06T04:55:49.972Z,-2.03
2018-03-06T04:56:49.945Z,-2.09
2018-03-06T04:57:50.937Z,-2.09
2018-03-06T04:58:49.918Z,-2.12
2018-03-06T04:59:49.875Z,-2.09
2018-03-06T05:00:49.685Z,-2.09
2018-03-06T05:01:49.566Z,-2.09
2018-03-06T05:02:49.851Z,-1.99
2018-03-06T05:03:49.531Z,-2.09
2018-03-06T05:04:51.389Z,-2.09
2018-03-06T05:05:49.496Z,-2.09
2018-03-06T05:06:49.464Z,-2.06
2018-03-06T05:07:49.445Z,-2.05
2018-03-06T05:08:51.397Z,-2.03
2018-03-06T05:09:49.696Z,-2.03
2018-03-06T05:10:49.681Z,-2.06
2018-03-06T05:11:51.431Z,-2
2018-03-06T05:12:49.660Z,-2.06
2018-03-06T05:13:49.639Z,-2.09
2018-03-06T05:14:50.437Z,-2.03
2018-03-06T05:15:49.315Z,-2.06
2018-03-06T05:16:49.547Z,-2.1
2018-03-06T05:17:50.810Z,-1.99
2018-03-06T05:18:49.299Z,-2.02
2018-03-06T05:19:49.491Z,-2.03
2018-03-06T05:20:49.200Z,-2.14
2018-03-06T05:21:51.061Z,-2.14
2018-03-06T05:22:49.150Z,-2.09
2018-03-06T05:23:49.153Z,-2.14
2018-03-06T05:24:49.402Z,-1.99
2018-03-06T05:25:50.877Z,-2.1
2018-03-06T05:26:49.077Z,-2.05
2018-03-06T05:27:49.330Z,-2.06
2018-03-06T05:28:49.044Z,-2.03
2018-03-06T05:29:49.864Z,-2.06
2018-03-06T05:30:49.336Z,-1.99
2018-03-06T05:31:48.995Z,-2
2018-03-06T05:32:49.982Z,-2.05
2018-03-06T05:33:49.224Z,-2.03
2018-03-06T05:34:48.939Z,-2.05
2018-03-06T05:35:48.908Z,-2.09
2018-03-06T05:36:48.613Z,-2.09
2018-03-06T05:37:49.181Z,-1.99
2018-03-06T05:38:48.570Z,-2.03
2018-03-06T05:39:49.130Z,-2.02
2018-03-06T05:40:49.572Z,-2.03
2018-03-06T05:41:48.790Z,-2.02
2018-03-06T05:42:49.066Z,-2.09
2018-03-06T05:43:48.755Z,-2.06
2018-03-06T05:44:49.414Z,-2.05
2018-03-06T05:45:48.973Z,-2.05
2018-03-06T05:46:48.960Z,-2.03
2018-03-06T05:47:48.984Z,-2.03
2018-03-06T05:48:50.640Z,-2.03
2018-03-06T05:49:48.624Z,-2.09
2018-03-06T05:50:48.615Z,-2.03
2018-03-06T05:51:49.388Z,-1.99
2018-03-06T05:52:48.304Z,-2.03
2018-03-06T05:53:48.830Z,-1.99
2018-03-06T05:54:48.527Z,-2
2018-03-06T05:55:49.437Z,-2.02
2018-03-06T05:56:48.488Z,-2
2018-03-06T05:57:48.479Z,-1.97
2018-03-06T05:58:48.730Z,-1.96
2018-03-06T05:59:48.166Z,-2
2018-03-06T06:00:48.700Z,-1.99
2018-03-06T06:01:48.684Z,-2
2018-03-06T06:02:48.641Z,-2
2018-03-06T06:03:50.098Z,-1.97
2018-03-06T06:04:48.341Z,-1.84
2018-03-06T06:05:48.319Z,-1.97
2018-03-06T06:06:48.024Z,-1.88
2018-03-06T06:07:48.603Z,-1.88
2018-03-06T06:08:48.675Z,-1.89
2018-03-06T06:09:48.279Z,-1.89
2018-03-06T06:10:48.232Z,-1.84
2018-03-06T06:11:48.975Z,-1.86
2018-03-06T06:12:48.185Z,-1.76
2018-03-06T06:13:48.147Z,-1.82
2018-03-06T06:14:48.380Z,-1.79
2018-03-06T06:15:48.370Z,-1.82
2018-03-06T06:16:48.344Z,-1.76
2018-03-06T06:17:47.811Z,-1.86
2018-03-06T06:18:48.342Z,-1.68
2018-03-06T06:19:48.290Z,-1.68
2018-03-06T06:20:48.275Z,-1.61
2018-03-06T06:21:48.259Z,-1.68
2018-03-06T06:22:48.234Z,-1.64
2018-03-06T06:23:47.953Z,-1.6
2018-03-06T06:24:48.580Z,-1.56
2018-03-06T06:25:48.174Z,-1.61
2018-03-06T06:26:48.157Z,-1.61
2018-03-06T06:27:48.173Z,-1.5
2018-03-06T06:28:47.599Z,-1.5
2018-03-06T06:29:47.836Z,-1.48
2018-03-06T06:30:47.819Z,-1.48
2018-03-06T06:31:47.540Z,-1.46
2018-03-06T06:32:47.784Z,-1.48
2018-03-06T06:33:48.015Z,-1.35
2018-03-06T06:34:47.487Z,-1.4
2018-03-06T06:35:47.983Z,-1.37
2018-03-06T06:36:47.698Z,-1.31
2018-03-06T06:37:47.706Z,-1.3
2018-03-06T06:38:47.664Z,-1.24
2018-03-06T06:39:47.900Z,-1.16
2018-03-06T06:40:47.646Z,-1.25
2018-03-06T06:41:47.868Z,-1.16
2018-03-06T06:42:47.967Z,-1.03
2018-03-06T06:43:47.838Z,-1.04
2018-03-06T06:44:47.877Z,-0.99
2018-03-06T06:45:47.785Z,-1.03
2018-03-06T06:46:47.835Z,-0.89
2018-03-06T06:47:47.494Z,-0.89
2018-03-06T06:48:47.730Z,-0.82
2018-03-06T06:49:47.708Z,-0.8
2018-03-06T06:50:47.688Z,-0.79
2018-03-06T06:51:47.671Z,-0.74
2018-03-06T06:52:47.399Z,-0.67
2018-03-06T06:53:47.639Z,-0.73
2018-03-06T06:54:47.356Z,-0.62
2018-03-06T06:55:47.596Z,-0.7
2018-03-06T06:56:47.581Z,-0.62
2018-03-06T06:57:47.306Z,-0.55
2018-03-06T06:58:47.540Z,-0.49
2018-03-06T06:59:47.269Z,-0.54
2018-03-06T07:00:47.398Z,-0.45
2018-03-06T07:01:47.228Z,-0.45
2018-03-06T07:02:47.471Z,-0.45
2018-03-06T07:03:46.938Z,-0.38
2018-03-06T07:04:47.173Z,-0.3
2018-03-06T07:05:47.153Z,-0.3
2018-03-06T07:06:47.389Z,-0.22
2018-03-06T07:07:47.116Z,-0.22
2018-03-06T07:08:47.101Z,-0.2
2018-03-06T07:09:47.335Z,-0.1
2018-03-06T07:10:47.063Z,-0.1
2018-03-06T07:11:47.298Z,-0.1
2018-03-06T07:12:47.282Z,-0.01
2018-03-06T07:13:47.004Z,0.05
2018-03-06T07:14:47.239Z,0.02
2018-03-06T07:15:47.324Z,0.1
2018-03-06T07:16:46.958Z,0.1
2018-03-06T07:17:47.186Z,0.08
2018-03-06T07:18:47.169Z,0.09
2018-03-06T07:19:46.893Z,0.1
2018-03-06T07:20:47.141Z,0.14
2018-03-06T07:21:47.110Z,0.02
2018-03-06T07:22:46.839Z,0.14
2018-03-06T07:23:47.136Z,0.17
2018-03-06T07:24:47.058Z,0.24
2018-03-06T07:25:47.044Z,0.24
2018-03-06T07:26:46.768Z,0.28
2018-03-06T07:27:47.003Z,0.26
2018-03-06T07:28:46.724Z,0.23
2018-03-06T07:29:46.996Z,0.32
2018-03-06T07:30:46.953Z,0.42
2018-03-06T07:31:46.672Z,0.41
2018-03-06T07:32:46.660Z,0.45
2018-03-06T07:33:46.900Z,0.52
2018-03-06T07:34:46.623Z,0.44
2018-03-06T07:35:46.859Z,0.45
2018-03-06T07:36:46.585Z,0.5
2018-03-06T07:37:46.826Z,0.52
2018-03-06T07:38:46.547Z,0.53
2018-03-06T07:39:46.785Z,0.64
2018-03-06T07:40:46.768Z,0.64
2018-03-06T07:41:46.822Z,0.75
2018-03-06T07:42:46.215Z,0.69
2018-03-06T07:43:46.456Z,0.84
2018-03-06T07:44:46.697Z,0.82
2018-03-06T07:45:46.162Z,0.84
2018-03-06T07:46:46.402Z,0.9
2018-03-06T07:47:46.643Z,0.86
2018-03-06T07:48:46.629Z,1.02
2018-03-06T07:49:46.351Z,0.93
2018-03-06T07:50:46.592Z,0.96
2018-03-06T07:51:46.058Z,1.12
2018-03-06T07:52:46.295Z,1.04
2018-03-06T07:53:46.537Z,1.11
2018-03-06T07:54:46.525Z,1.14
2018-03-06T07:55:46.501Z,1.12
2018-03-06T07:56:46.491Z,1.18
2018-03-06T07:57:46.209Z,1.21
2018-03-06T07:58:46.448Z,1.2
2018-03-06T07:59:46.172Z,1.24
2018-03-06T08:00:46.417Z,1.17
2018-03-06T08:01:46.395Z,1.29
2018-03-06T08:02:46.376Z,1.24
2018-03-06T08:03:46.362Z,1.3
2018-03-06T08:04:46.086Z,1.33
2018-03-06T08:05:46.069Z,1.4
2018-03-06T08:06:46.309Z,1.48
2018-03-06T08:07:45.776Z,1.51
2018-03-06T08:08:46.021Z,1.48
2018-03-06T08:09:45.999Z,1.44
2018-03-06T08:10:46.237Z,1.56
2018-03-06T08:11:46.336Z,1.61
2018-03-06T08:12:45.944Z,1.76
2018-03-06T08:13:45.930Z,1.72
2018-03-06T08:14:45.910Z,1.72
2018-03-06T08:15:46.153Z,1.84
2018-03-06T08:16:46.137Z,1.83
2018-03-06T08:17:46.143Z,1.89
2018-03-06T08:18:46.097Z,1.86
2018-03-06T08:19:45.829Z,1.83
2018-03-06T08:20:45.552Z,2.05
2018-03-06T08:21:46.046Z,1.98
2018-03-06T08:22:46.038Z,2.05
2018-03-06T08:23:45.754Z,2.05
2018-03-06T08:24:46.001Z,2.09
2018-03-06T08:25:45.725Z,2.13
2018-03-06T08:26:45.707Z,2.2
2018-03-06T08:27:45.954Z,2.13
2018-03-06T08:28:45.418Z,2.18
2018-03-06T08:29:45.655Z,2.18
2018-03-06T08:30:45.902Z,2.15
2018-03-06T08:31:45.879Z,2.15
2018-03-06T08:32:45.603Z,2.08
2018-03-06T08:33:45.844Z,2.06
2018-03-06T08:34:45.571Z,2.02
2018-03-06T08:35:45.560Z,2.13
2018-03-06T08:36:45.543Z,2.15
2018-03-06T08:37:45.625Z,2.15
2018-03-06T08:38:45.506Z,2.15
2018-03-06T08:39:45.231Z,2.13
2018-03-06T08:40:45.726Z,2.33
2018-03-06T08:41:45.456Z,2.29
2018-03-06T08:42:45.696Z,2.33
2018-03-06T08:43:45.677Z,2.34
2018-03-06T08:44:45.406Z,2.38
2018-03-06T08:45:45.390Z,2.44
2018-03-06T08:46:45.629Z,2.31
2018-03-06T08:47:45.099Z,2.33
2018-03-06T08:48:45.602Z,2.36
2018-03-06T08:49:45.586Z,2.38
2018-03-06T08:50:45.567Z,2.44
2018-03-06T08:51:45.291Z,2.45
2018-03-06T08:52:45.530Z,2.33
2018-03-06T08:53:45.520Z,2.48
2018-03-06T08:54:45.239Z,2.49
2018-03-06T08:55:45.483Z,2.48
2018-03-06T08:56:45.205Z,2.55
2018-03-06T08:57:45.543Z,2.55
2018-03-06T08:58:45.174Z,2.59
2018-03-06T08:59:45.164Z,2.54
2018-03-06T09:00:45.401Z,2.63
2018-03-06T09:01:45.388Z,2.72
2018-03-06T09:02:45.107Z,2.76
2018-03-06T09:03:45.156Z,2.93
2018-03-06T09:04:45.080Z,2.83
2018-03-06T09:05:44.803Z,2.87
2018-03-06T09:06:45.045Z,2.87
2018-03-06T09:07:45.282Z,2.88
2018-03-06T09:08:45.275Z,2.87
2018-03-06T09:09:44.995Z,2.78
2018-03-06T09:10:44.979Z,2.83
2018-03-06T09:11:45.222Z,2.87
2018-03-06T09:12:45.208Z,2.91
2018-03-06T09:13:45.189Z,2.85
2018-03-06T09:14:45.175Z,3.01
2018-03-06T09:15:44.901Z,2.93
2018-03-06T09:16:44.882Z,3.01
2018-03-06T09:17:45.132Z,2.98
2018-03-06T09:18:45.110Z,2.99
2018-03-06T09:19:44.579Z,2.93
2018-03-06T09:20:45.080Z,3.08
2018-03-06T09:21:44.806Z,3.06
2018-03-06T09:22:44.786Z,2.93
2018-03-06T09:23:45.032Z,3.05
2018-03-06T09:24:45.041Z,3.11
2018-03-06T09:25:44.994Z,3.08
2018-03-06T09:26:44.727Z,3.2
2018-03-06T09:27:44.711Z,3.16
2018-03-06T09:28:44.697Z,3.24
2018-03-06T09:29:44.679Z,3.21
2018-03-06T09:30:44.919Z,3.3
2018-03-06T09:31:44.904Z,3.32
2018-03-06T09:32:44.885Z,3.32
2018-03-06T09:33:44.615Z,3.34
2018-03-06T09:34:44.599Z,3.51
2018-03-06T09:35:44.847Z,3.43
2018-03-06T09:36:44.824Z,3.43
2018-03-06T09:37:44.805Z,3.56
2018-03-06T09:38:44.798Z,3.54
2018-03-06T09:39:44.521Z,3.6
2018-03-06T09:40:44.764Z,3.51
2018-03-06T09:41:44.759Z,3.48
2018-03-06T09:42:44.732Z,3.58
2018-03-06T09:43:44.460Z,3.49
2018-03-06T09:44:44.186Z,3.49
2018-03-06T09:45:44.427Z,3.54
2018-03-06T09:46:44.671Z,3.66
2018-03-06T09:47:44.651Z,3.76
2018-03-06T09:48:44.645Z,3.79
2018-03-06T09:49:44.368Z,3.84
2018-03-06T09:50:44.612Z,3.81
2018-03-06T09:51:44.333Z,3.85
2018-03-06T09:52:44.577Z,3.86
2018-03-06T09:53:44.046Z,3.96
2018-03-06T09:54:44.548Z,3.99
2018-03-06T09:55:44.530Z,3.9
2018-03-06T09:56:44.514Z,4.03
2018-03-06T09:57:44.241Z,4.15
2018-03-06T09:58:44.485Z,4.15
2018-03-06T09:59:44.472Z,4.21
2018-03-06T10:00:44.198Z,4.28
2018-03-06T10:01:44.440Z,4.32
2018-03-06T10:02:44.164Z,4.4
2018-03-06T10:03:44.415Z,4.4
2018-03-06T10:04:44.391Z,4.35
2018-03-06T10:05:44.122Z,4.39
2018-03-06T10:06:44.108Z,4.4
2018-03-06T10:07:44.092Z,4.3
2018-03-06T10:08:44.084Z,4.24
2018-03-06T10:09:44.318Z,4.3
2018-03-06T10:10:44.048Z,4.38
2018-03-06T10:11:44.034Z,4.39
2018-03-06T10:12:43.760Z,4.42
2018-03-06T10:13:44.259Z,4.51
2018-03-06T10:14:43.986Z,4.48
2018-03-06T10:15:44.230Z,4.56
2018-03-06T10:16:44.215Z,4.51
2018-03-06T10:17:44.202Z,4.51
2018-03-06T10:18:43.931Z,4.54
2018-03-06T10:19:44.175Z,4.51
2018-03-06T10:20:44.156Z,4.56
2018-03-06T10:21:44.140Z,4.5
2018-03-06T10:22:44.138Z,4.46
2018-03-06T10:23:43.856Z,4.58
2018-03-06T10:24:43.844Z,4.51
2018-03-06T10:25:43.831Z,4.57
2018-03-06T10:26:44.072Z,4.51
2018-03-06T10:27:44.052Z,4.57
2018-03-06T10:28:43.781Z,4.47
2018-03-06T10:29:44.031Z,4.44
2018-03-06T10:30:44.009Z,4.47
2018-03-06T10:31:43.998Z,4.44
2018-03-06T10:32:43.722Z,4.36
2018-03-06T10:33:43.711Z,4.24
2018-03-06T10:34:43.693Z,4.3
2018-03-06T10:35:43.938Z,4.32
2018-03-06T10:36:43.666Z,4.36
2018-03-06T10:37:43.908Z,4.36
2018-03-06T10:38:43.895Z,4.39
2018-03-06T10:39:43.620Z,4.46
2018-03-06T10:40:43.863Z,4.53
2018-03-06T10:41:43.592Z,4.46
2018-03-06T10:42:43.833Z,4.6
2018-03-06T10:43:43.562Z,4.64
2018-03-06T10:44:43.806Z,4.68
2018-03-06T10:45:43.532Z,4.69
2018-03-06T10:46:43.776Z,4.87
2018-03-06T10:47:43.763Z,4.78
2018-03-06T10:48:43.493Z,4.64
2018-03-06T10:49:43.544Z,4.69
2018-03-06T10:50:43.461Z,4.58
2018-03-06T10:51:43.445Z,4.48
2018-03-06T10:52:43.432Z,4.56
2018-03-06T10:53:43.417Z,4.48
2018-03-06T10:54:43.401Z,4.5
2018-03-06T10:55:43.645Z,4.53
2018-03-06T10:56:43.634Z,4.54
2018-03-06T10:57:43.620Z,4.47
2018-03-06T10:58:43.343Z,4.5
2018-03-06T10:59:43.336Z,4.51
2018-03-06T11:00:43.576Z,4.51
2018-03-06T11:01:43.301Z,4.47
2018-03-06T11:02:43.285Z,4.53
2018-03-06T11:03:43.529Z,4.48
2018-03-06T11:04:43.256Z,4.5
2018-03-06T11:05:43.240Z,4.47
2018-03-06T11:06:43.491Z,4.57
2018-03-06T11:07:43.469Z,4.6
2018-03-06T11:08:43.198Z,4.56
2018-03-06T11:09:43.182Z,4.47
2018-03-06T11:10:43.169Z,4.6
2018-03-06T11:11:43.155Z,4.61
2018-03-06T11:12:43.410Z,4.71
2018-03-06T11:13:43.385Z,4.72
2018-03-06T11:14:43.108Z,4.68
2018-03-06T11:15:43.094Z,4.68
2018-03-06T11:16:43.336Z,4.69
2018-03-06T11:17:43.062Z,4.75
2018-03-06T11:18:43.051Z,4.75
2018-03-06T11:19:43.299Z,4.75
2018-03-06T11:20:42.763Z,4.92
2018-03-06T11:21:43.262Z,4.79
2018-03-06T11:22:43.254Z,4.84
2018-03-06T11:23:43.250Z,4.75
2018-03-06T11:24:43.320Z,4.79
2018-03-06T11:25:42.692Z,4.79
2018-03-06T11:26:43.191Z,4.75
2018-03-06T11:27:43.186Z,4.66
2018-03-06T11:28:42.907Z,4.66
2018-03-06T11:29:42.893Z,4.68
2018-03-06T11:30:43.142Z,4.57
2018-03-06T11:31:43.122Z,4.58
2018-03-06T11:32:43.105Z,4.6
2018-03-06T11:33:43.093Z,4.5
2018-03-06T11:34:43.075Z,4.54
2018-03-06T11:35:42.803Z,4.51
2018-03-06T11:36:42.790Z,4.47
2018-03-06T11:37:43.036Z,4.4
2018-03-06T11:38:43.019Z,4.47
2018-03-06T11:39:43.004Z,4.47
2018-03-06T11:40:42.995Z,4.46
2018-03-06T11:41:42.976Z,4.46
2018-03-06T11:42:42.704Z,4.48
2018-03-06T11:43:42.947Z,4.42
2018-03-06T11:44:42.940Z,4.51
2018-03-06T11:45:42.661Z,4.46
2018-03-06T11:46:42.917Z,4.51
2018-03-06T11:47:42.887Z,4.5
2018-03-06T11:48:42.878Z,4.48
2018-03-06T11:49:42.860Z,4.53
2018-03-06T11:50:42.588Z,4.51
2018-03-06T11:51:42.575Z,4.46
2018-03-06T11:52:42.559Z,4.4
2018-03-06T11:53:42.547Z,4.44
2018-03-06T11:54:42.790Z,4.42
2018-03-06T11:55:42.516Z,4.51
2018-03-06T11:56:42.504Z,4.53
2018-03-06T11:57:42.750Z,4.6
2018-03-06T11:58:42.732Z,4.72
2018-03-06T11:59:42.717Z,4.75
2018-03-06T12:00:42.701Z,4.87
2018-03-06T12:01:42.427Z,4.87
2018-03-06T12:02:42.421Z,4.98
2018-03-06T12:03:42.659Z,4.95
2018-03-06T12:04:42.644Z,4.94
2018-03-06T12:05:42.629Z,4.79
2018-03-06T12:06:42.358Z,4.85
2018-03-06T12:07:42.609Z,4.65
2018-03-06T12:08:42.329Z,4.64
2018-03-06T12:09:42.567Z,4.54
2018-03-06T12:10:42.300Z,4.53
2018-03-06T12:11:42.547Z,4.56
2018-03-06T12:12:42.536Z,4.54
2018-03-06T12:13:41.998Z,4.48
2018-03-06T12:14:42.498Z,4.5
2018-03-06T12:15:42.530Z,4.42
2018-03-06T12:16:42.217Z,4.46
2018-03-06T12:17:42.461Z,4.48
2018-03-06T12:18:42.537Z,4.47
2018-03-06T12:19:41.912Z,4.44
2018-03-06T12:20:42.413Z,4.44
2018-03-06T12:21:42.395Z,4.39
2018-03-06T12:22:42.389Z,4.38
2018-03-06T12:23:42.371Z,4.29
2018-03-06T12:24:42.098Z,4.21
2018-03-06T12:25:42.340Z,4.17
2018-03-06T12:26:42.327Z,4.26
2018-03-06T12:27:42.053Z,4.18
2018-03-06T12:28:42.039Z,4.22
2018-03-06T12:29:42.279Z,4.2
2018-03-06T12:30:42.010Z,4.21
2018-03-06T12:31:42.252Z,4.21
2018-03-06T12:32:41.981Z,4.07
2018-03-06T12:33:42.224Z,4.04
2018-03-06T12:34:41.953Z,3.94
2018-03-06T12:35:41.936Z,3.94
2018-03-06T12:36:41.920Z,4
2018-03-06T12:37:41.653Z,3.92
2018-03-06T12:38:42.153Z,3.96
2018-03-06T12:39:42.133Z,3.96
2018-03-06T12:40:41.863Z,3.89
2018-03-06T12:41:42.106Z,3.94
2018-03-06T12:42:41.838Z,3.92
2018-03-06T12:43:41.818Z,3.82
2018-03-06T12:44:42.062Z,3.81
2018-03-06T12:45:42.049Z,3.9
2018-03-06T12:46:42.028Z,3.82
2018-03-06T12:47:41.755Z,3.79
2018-03-06T12:48:41.745Z,3.82
2018-03-06T12:49:41.726Z,3.79
2018-03-06T12:50:41.974Z,3.76
2018-03-06T12:51:41.953Z,3.72
2018-03-06T12:52:41.943Z,3.74
2018-03-06T12:53:41.406Z,3.67
2018-03-06T12:54:41.775Z,3.61
2018-03-06T12:55:41.904Z,3.61
2018-03-06T12:56:41.875Z,3.49
2018-03-06T12:57:41.864Z,3.43
2018-03-06T12:58:41.843Z,3.39
2018-03-06T12:59:41.832Z,3.48
2018-03-06T13:00:41.813Z,3.23
2018-03-06T13:01:41.804Z,3.17
2018-03-06T13:02:41.783Z,3.09
2018-03-06T13:03:41.511Z,3.08
2018-03-06T13:04:41.762Z,3.01
2018-03-06T13:05:41.480Z,2.96
2018-03-06T13:06:41.719Z,2.77
2018-03-06T13:07:41.707Z,2.8
2018-03-06T13:08:41.692Z,2.83